Etusivu
METAR-TAF:

METAR-TAF

Lentoasemat :

Topeka, Kansas, Yhdysvallat

Leveyspiiri: 38-56-29N, Pituuspiiri: 095-39-02W, korkeus merenpinnasta: 329 m

Tämänhetkinen sää

Tämä raportti tehtiin 51 minuuttia sitten, kello 14.03 UTC
Tuuli 5 kn kaakosta
Lämpötila 24°C
Kosteus 89%
Ilmanpaine 1024 hPa
Näkyvyys: 16.1 km
Hajanaisia pilviä 500 ft:n korkeudessa

METAR: KFOE 201403Z 14005KT 10SM SCT005 24/22 A3025 RMK AO2 T02440217

Aika: 09:54 (14:54 UTC)

Sääennuste

Tämä raportti tehtiin 31 minuuttia sitten, kello 14.23 UTC
Ennuste voimassa 20. päivästä klo 14 UTC - 21. päivään klo 12 UTC
Tuuli 5 kn idästä
Näkyvyys: 4.8 km
Hajanaisia pilviä 300 ft:n korkeudessa
utua
Ajoittain
20. päivästä klo 14 UTC - 20. päivään klo 15 UTC
Hajanaisia pilviä 2500 ft:n korkeudessa
From 20. päivästä klo 1500 UTC
Tuuli 8 kn etelästä
Näkyvyys: 10 km
Hajanaisia pilviä 4000 ft:n korkeudessa

TAF: KFOE 201423Z 2014/2112 08005KT 3SM BR SCT003 TEMPO 2014/2015 SCT025 FM201500 17008KT P6SM SCT040

Säähavainnot ja -ennusteet yli 4000 lentoasemalta (METAR- ja TAF-raportit).

Käytössä olevat sääasemat on merkitty karttaan keltaisilla ja punaisilla pisteillä.

Aseta hiiri pisteen päälle nähdäksesi sääaseman nimen.

Klikkaa sitten nähdäksesi säähavainnot ja -ennusteet.

Kartan vaihtaminen: klikkaa mustalla rastilla varustettuja vihreitä pisteitä, niin voit zoomata sisään; viivalla varustettua vihreää pistettä, niin voit zoomata ulos tai vihreitä nuolia, niin pääset viereisille kartoille.


METAR-TAF: